Time;durP1;ratioP1;P1;durP2;ratioP2;P2;SDS_P1;SDS_P2;PMS_P1;PMS_P2;Temp;Humidity;BMP_temperature;BMP_pressure;BME280_temperature;BME280_humidity;BME280_pressure;Samples;Min_cycle;Max_cycle;Signal;HPM_P1;HPM_P2
2022/12/17 13:06:39;;;;;;;;;;;-0.10;99.90;;;;;;5002095;28;20080;-84
2022/12/17 13:09:14;;;;;;;156.07;79.05;;;-0.10;99.90;;;;;;5022579;28;19944;-81
2022/12/17 13:11:42;;;;;;;169.23;80.32;;;-0.10;99.90;;;;;;5023202;28;20077;-82
2022/12/17 13:14:28;;;;;;;149.43;76.15;;;-0.10;99.90;;;;;;5026500;28;20119;-82
2022/12/17 13:17:01;;;;;;;79.60;35.38;;;-0.10;99.90;;;;;;5032583;28;20125;-83
2022/12/17 13:19:30;;;;;;;85.85;32.35;;;-0.20;99.90;;;;;;5025983;28;20605;-83
2022/12/17 13:21:56;;;;;;;155.80;77.78;;;-0.20;99.90;;;;;;5025690;28;20060;-83
2022/12/17 13:24:27;;;;;;;146.95;73.40;;;-0.20;99.90;;;;;;5026455;28;20056;-84
2022/12/17 13:26:53;;;;;;;173.68;79.53;;;-0.10;99.90;;;;;;5026707;28;20045;-83
2022/12/17 13:29:36;;;;;;;163.07;78.82;;;-0.10;99.90;;;;;;5026677;28;20398;-84
2022/12/17 13:32:32;;;;;;;163.57;79.30;;;-0.10;99.90;;;;;;5023115;28;20782;-83
2022/12/17 13:35:24;;;;;;;190.70;98.35;;;-0.10;99.90;;;;;;5015819;28;20053;-82
2022/12/17 13:38:16;;;;;;;170.68;81.30;;;-0.10;99.90;;;;;;5008342;28;21052;-82
2022/12/17 13:41:05;;;;;;;157.55;79.30;;;-0.10;99.90;;;;;;5041351;28;20451;-83
2022/12/17 13:43:33;;;;;;;71.95;30.25;;;-0.10;99.90;;;;;;5020741;28;20051;-82
2022/12/17 13:45:59;;;;;;;145.38;71.68;;;-0.10;99.90;;;;;;5026212;28;20056;-82
2022/12/17 13:48:29;;;;;;;71.22;26.20;;;-0.20;99.90;;;;;;5028297;28;20045;-84
2022/12/17 13:51:39;;;;;;;88.50;33.83;;;-0.20;99.90;;;;;;5029013;28;20042;-83
2022/12/17 13:54:23;;;;;;;157.82;73.32;;;-0.20;99.90;;;;;;5005633;28;20045;-84
2022/12/17 13:56:48;;;;;;;80.88;33.65;;;-0.20;99.90;;;;;;5024083;28;20398;-82
2022/12/17 13:59:21;;;;;;;143.38;71.45;;;-0.30;99.90;;;;;;5025425;28;20037;-83
2022/12/17 14:01:52;;;;;;;152.13;72.80;;;-0.30;99.90;;;;;;5024789;28;20057;-82
2022/12/17 14:04:23;;;;;;;155.40;72.30;;;-0.30;99.90;;;;;;5023751;28;20048;-84
2022/12/17 14:06:50;;;;;;;85.00;33.72;;;-0.30;99.90;;;;;;5025715;28;20045;-83
2022/12/17 14:09:17;;;;;;;151.23;72.43;;;-0.30;99.90;;;;;;5026821;28;20081;-83
2022/12/17 14:14:32;;;;;;;160.50;79.53;;;-0.30;99.90;;;;;;5022367;28;20053;-83
2022/12/17 14:16:58;;;;;;;150.43;73.43;;;-0.30;99.90;;;;;;5025722;28;20050;-83
2022/12/17 14:19:24;;;;;;;151.45;76.72;;;-0.40;99.90;;;;;;5025979;28;20494;-83
2022/12/17 14:21:50;;;;;;;153.90;75.93;;;-0.40;99.90;;;;;;5024490;28;20191;-83
2022/12/17 14:24:19;;;;;;;86.68;33.40;;;-0.30;99.90;;;;;;5025648;28;20053;-84
2022/12/17 14:26:55;;;;;;;;;;;-0.40;99.90;;;;;;5028488;28;20041;-83
2022/12/17 14:29:27;;;;;;;162.82;74.90;;;-0.40;99.90;;;;;;5025823;28;19976;-82
2022/12/17 14:31:56;;;;;;;149.63;74.38;;;-0.40;99.90;;;;;;5026091;28;20156;-83
2022/12/17 14:34:22;;;;;;;176.80;72.72;;;-0.50;99.90;;;;;;5025687;28;20084;-83
2022/12/17 14:36:59;;;;;;;163.15;75.03;;;-0.50;99.90;;;;;;5025714;28;20073;-83
2022/12/17 14:39:30;;;;;;;158.93;71.95;;;-0.50;99.90;;;;;;5029842;28;20041;-83
2022/12/17 14:44:56;;;;;;;198.55;88.97;;;-0.50;99.90;;;;;;5022569;28;20076;-83
2022/12/17 14:47:28;;;;;;;182.90;89.05;;;-0.50;99.90;;;;;;5026821;28;20760;-82
2022/12/17 14:50:04;;;;;;;187.77;83.50;;;-0.50;99.90;;;;;;5024349;28;20054;-82
2022/12/17 14:52:35;;;;;;;174.50;79.72;;;-0.50;99.90;;;;;;5015075;28;20414;-82
2022/12/17 14:55:24;;;;;;;167.20;78.25;;;-0.50;99.90;;;;;;5020790;28;20050;-83
2022/12/17 14:57:51;;;;;;;173.00;79.38;;;-0.50;99.90;;;;;;5025223;28;20071;-81
2022/12/17 15:00:17;;;;;;;166.85;75.60;;;-0.50;99.90;;;;;;5031509;28;20125;-82
2022/12/17 15:02:45;;;;;;;170.95;74.50;;;-0.60;99.90;;;;;;5023354;28;20050;-83
2022/12/17 15:05:15;;;;;;;170.50;72.97;;;-0.60;99.90;;;;;;5019714;28;20353;-83
2022/12/17 15:07:41;;;;;;;60.80;20.23;;;-0.70;99.90;;;;;;5016511;28;20053;-83
2022/12/17 15:10:12;;;;;;;164.82;71.72;;;-0.70;99.90;;;;;;5021089;28;20046;-83
2022/12/17 15:12:40;;;;;;;161.95;71.47;;;-0.70;99.90;;;;;;5021020;28;20037;-83
2022/12/17 15:15:07;;;;;;;155.82;71.32;;;-0.80;99.90;;;;;;5023895;28;20049;-83
2022/12/17 15:17:33;;;;;;;152.55;68.07;;;-0.80;99.90;;;;;;5026324;28;21023;-86
2022/12/17 15:19:58;;;;;;;49.28;18.50;;;-0.80;99.90;;;;;;5024332;28;20129;-85
2022/12/17 15:22:25;;;;;;;151.27;65.57;;;-0.90;99.90;;;;;;5026367;28;20120;-86
2022/12/17 15:24:50;;;;;;;167.45;69.82;;;-0.90;99.90;;;;;;5027062;28;20053;-87
2022/12/17 15:27:16;;;;;;;163.35;68.93;;;-0.90;99.90;;;;;;5010975;28;20041;-86
2022/12/17 15:29:43;;;;;;;177.45;67.78;;;-0.90;99.90;;;;;;5024630;28;20046;-83
2022/12/17 15:32:19;;;;;;;162.70;69.72;;;-0.90;99.90;;;;;;5025215;28;20077;-83
2022/12/17 15:34:46;;;;;;;169.98;70.13;;;-0.80;99.90;;;;;;5019893;28;20485;-84
2022/12/17 15:37:11;;;;;;;163.02;70.45;;;-0.90;99.90;;;;;;5024545;28;20041;-83
2022/12/17 15:39:37;;;;;;;178.35;76.47;;;-0.90;99.90;;;;;;5022059;28;20042;-81
2022/12/17 15:44:47;;;;;;;180.68;76.43;;;-0.90;99.90;;;;;;5024118;28;20045;-85
2022/12/17 15:47:13;;;;;;;173.30;74.63;;;-0.90;99.90;;;;;;5026946;28;20445;-84
2022/12/17 15:49:38;;;;;;;192.52;79.35;;;-1.00;99.90;;;;;;5028303;28;20124;-85
2022/12/17 15:52:04;;;;;;;191.68;78.45;;;-1.00;99.90;;;;;;5020919;28;20046;-81
2022/12/17 15:54:30;;;;;;;183.55;76.80;;;-1.00;99.90;;;;;;5026323;28;20046;-86
2022/12/17 15:56:56;;;;;;;184.88;73.78;;;-1.00;99.90;;;;;;5029276;28;20095;-84
2022/12/17 15:59:23;;;;;;;165.32;69.10;;;-1.00;99.90;;;;;;5005690;28;20037;-85
2022/12/17 16:01:49;;;;;;;181.23;70.30;;;-1.10;99.90;;;;;;5023811;28;20145;-83
2022/12/17 16:04:15;;;;;;;51.17;18.00;;;-1.10;99.90;;;;;;5029116;28;20034;-83
2022/12/17 16:06:41;;;;;;;162.45;72.88;;;-1.20;99.90;;;;;;5028076;28;20087;-83
2022/12/17 16:09:07;;;;;;;174.23;70.20;;;-1.20;99.90;;;;;;5024895;28;20041;-83
2022/12/17 16:11:33;;;;;;;153.60;67.13;;;-1.20;99.90;;;;;;5027505;28;20069;-82
2022/12/17 16:13:58;;;;;;;167.35;74.07;;;-1.30;99.90;;;;;;5009944;28;20064;-82
2022/12/17 16:16:24;;;;;;;170.30;74.85;;;-1.30;99.90;;;;;;5027401;28;20491;-82
2022/12/17 16:18:51;;;;;;;170.43;71.43;;;-1.30;99.90;;;;;;5027655;28;20134;-82
2022/12/17 16:21:16;;;;;;;179.68;76.30;;;-1.30;99.90;;;;;;5027312;28;20049;-83
2022/12/17 16:23:42;;;;;;;192.68;79.72;;;-1.30;99.90;;;;;;5028207;28;20081;-83
2022/12/17 16:26:10;;;;;;;170.88;73.05;;;-1.30;99.90;;;;;;5027571;28;20060;-83
2022/12/17 16:28:36;;;;;;;177.13;73.43;;;-1.30;99.90;;;;;;5025657;28;20168;-83
2022/12/17 16:31:11;;;;;;;176.18;74.25;;;-1.30;99.90;;;;;;5027378;28;20120;-82
2022/12/17 16:33:38;;;;;;;179.63;79.53;;;-1.40;99.90;;;;;;5025087;28;20113;-82
2022/12/17 16:36:05;;;;;;;46.10;15.83;;;-1.40;99.90;;;;;;5026346;28;20379;-83
2022/12/17 16:38:33;;;;;;;195.25;80.07;;;-1.40;99.90;;;;;;5027967;28;20521;-84
2022/12/17 16:41:01;;;;;;;193.57;80.07;;;-1.50;99.90;;;;;;5026780;28;20072;-84
2022/12/17 16:43:33;;;;;;;186.57;79.35;;;-1.40;99.90;;;;;;5024726;28;20103;-84
2022/12/17 16:45:58;;;;;;;63.47;19.13;;;-1.40;99.90;;;;;;5026317;28;20049;-84
2022/12/17 16:48:25;;;;;;;51.90;20.27;;;-1.50;99.90;;;;;;5029679;28;20762;-83
2022/12/17 16:50:51;;;;;;;203.48;84.97;;;-1.50;99.90;;;;;;5026806;28;20364;-84
2022/12/17 16:53:17;;;;;;;198.52;81.68;;;-1.50;99.90;;;;;;5031077;28;20507;-84
2022/12/17 16:55:48;;;;;;;191.55;82.20;;;-1.40;99.90;;;;;;5011511;28;20045;-84
2022/12/17 16:58:15;;;;;;;201.40;88.65;;;-1.40;99.90;;;;;;5025835;28;20053;-84
2022/12/17 17:00:41;;;;;;;195.00;85.07;;;-1.40;99.90;;;;;;5027877;28;20068;-83
2022/12/17 17:03:08;;;;;;;214.77;84.03;;;-1.40;99.90;;;;;;5027054;28;20490;-84
2022/12/17 17:05:37;;;;;;;199.47;85.47;;;-1.40;99.90;;;;;;5020705;28;20053;-83
2022/12/17 17:08:04;;;;;;;201.45;82.53;;;-1.40;99.90;;;;;;5023457;28;20061;-84
2022/12/17 17:10:30;;;;;;;198.07;83.63;;;-1.40;99.90;;;;;;5026816;28;20051;-84
2022/12/17 17:12:55;;;;;;;200.85;85.20;;;-1.40;99.90;;;;;;5023215;28;20050;-85
2022/12/17 17:15:22;;;;;;;182.88;84.13;;;-1.30;99.90;;;;;;5027261;28;20400;-84
2022/12/17 17:17:48;;;;;;;199.20;84.20;;;-1.40;99.90;;;;;;5026299;28;20033;-85
2022/12/17 17:20:14;;;;;;;203.73;88.22;;;-1.30;99.90;;;;;;5025555;28;20042;-81
2022/12/17 17:22:39;;;;;;;201.65;89.18;;;-1.30;99.90;;;;;;5026330;28;20048;-84
2022/12/17 17:25:05;;;;;;;205.18;92.03;;;-1.40;99.90;;;;;;5022832;28;20069;-84
2022/12/17 17:27:31;;;;;;;193.65;86.00;;;-1.40;99.90;;;;;;5022628;28;20057;-85
2022/12/17 17:29:57;;;;;;;188.48;85.70;;;-1.40;99.90;;;;;;5019463;28;20041;-81
2022/12/17 17:32:24;;;;;;;191.32;89.93;;;-1.30;99.90;;;;;;5025843;28;20052;-81
2022/12/17 17:34:50;;;;;;;196.38;91.38;;;-1.40;99.90;;;;;;5023090;28;20049;-80
2022/12/17 17:37:17;;;;;;;202.27;89.68;;;-1.30;99.90;;;;;;5026890;28;20662;-81
2022/12/17 17:39:43;;;;;;;203.77;91.97;;;-1.40;99.90;;;;;;5026278;28;20196;-80
2022/12/17 17:42:09;;;;;;;204.25;90.75;;;-1.40;99.90;;;;;;5026127;28;20167;-81
2022/12/17 17:44:34;;;;;;;192.15;89.85;;;-1.30;99.90;;;;;;5026816;28;20072;-80
2022/12/17 17:47:00;;;;;;;175.52;84.00;;;-1.40;99.90;;;;;;5027438;28;20454;-82
2022/12/17 17:49:26;;;;;;;183.35;86.60;;;-1.50;99.90;;;;;;5028713;28;20042;-84
2022/12/17 17:51:52;;;;;;;169.93;82.80;;;-1.50;99.90;;;;;;5026251;28;20060;-84
2022/12/17 17:54:19;;;;;;;187.85;84.38;;;-1.50;99.90;;;;;;5026037;28;20132;-84
2022/12/17 17:56:44;;;;;;;260.17;144.05;;;-1.50;99.90;;;;;;5027136;28;20041;-84
2022/12/17 17:59:12;;;;;;;217.38;108.05;;;-1.60;99.90;;;;;;5026962;28;20452;-84
2022/12/17 18:01:43;;;;;;;207.05;101.38;;;-1.60;99.90;;;;;;5023377;28;20064;-84
2022/12/17 18:04:11;;;;;;;188.43;87.50;;;-1.60;99.90;;;;;;5025889;28;20049;-83
2022/12/17 18:06:41;;;;;;;73.32;24.30;;;-1.70;99.90;;;;;;5022163;28;20049;-83
2022/12/17 18:09:07;;;;;;;179.82;90.95;;;-1.70;99.90;;;;;;5026236;28;20041;-83
2022/12/17 18:11:33;;;;;;;186.90;91.05;;;-1.70;99.90;;;;;;5024963;28;20453;-85
2022/12/17 18:14:01;;;;;;;197.30;90.97;;;-1.70;99.90;;;;;;5025601;28;20045;-83
2022/12/17 18:16:34;;;;;;;192.77;97.80;;;-1.60;99.90;;;;;;5022811;28;20041;-83
2022/12/17 18:19:11;;;;;;;204.55;100.68;;;-1.60;99.90;;;;;;5021226;28;20113;-84
2022/12/17 18:21:37;;;;;;;208.52;101.07;;;-1.60;99.90;;;;;;5022060;28;20427;-83
2022/12/17 18:24:08;;;;;;;208.20;103.05;;;-1.60;99.90;;;;;;5024739;28;20501;-83
2022/12/17 18:26:38;;;;;;;79.57;25.45;;;-1.60;99.90;;;;;;5026307;28;20037;-83
2022/12/17 18:29:15;;;;;;;214.55;98.68;;;-1.60;99.90;;;;;;5025139;28;20045;-83
2022/12/17 18:31:41;;;;;;;211.40;99.47;;;-1.60;99.90;;;;;;5024644;28;20053;-83
2022/12/17 18:34:09;;;;;;;230.73;107.65;;;-1.60;99.90;;;;;;5025569;28;20835;-85
2022/12/17 18:36:40;;;;;;;220.15;106.68;;;-1.60;99.90;;;;;;5026545;28;20029;-84
2022/12/17 18:39:14;;;;;;;224.23;111.10;;;-1.70;99.90;;;;;;5031365;28;20136;-84
2022/12/17 18:44:25;;;;;;;217.90;109.25;;;-1.70;99.90;;;;;;5024680;28;20061;-84
2022/12/17 18:46:50;;;;;;;214.13;101.75;;;-1.70;99.90;;;;;;5029720;28;20414;-84
2022/12/17 18:49:18;;;;;;;224.98;105.18;;;-1.70;99.90;;;;;;5025612;28;20034;-84
2022/12/17 18:51:46;;;;;;;39.03;19.70;;;-1.80;99.90;;;;;;5021161;28;20044;-84
2022/12/17 18:54:18;;;;;;;201.85;100.47;;;-1.80;99.90;;;;;;5024449;28;20058;-83
2022/12/17 18:56:44;;;;;;;68.85;22.35;;;-1.80;99.90;;;;;;5018570;28;20042;-85
2022/12/17 18:59:15;;;;;;;209.52;101.70;;;-1.80;99.90;;;;;;5025046;28;20175;-85
2022/12/17 19:01:42;;;;;;;210.10;102.07;;;-1.80;99.90;;;;;;5023881;28;20102;-84
2022/12/17 19:04:11;;;;;;;65.43;22.92;;;-1.80;99.90;;;;;;5022646;28;20034;-85
2022/12/17 19:06:37;;;;;;;215.90;101.20;;;-1.80;99.90;;;;;;5021527;28;20033;-85
2022/12/17 19:09:05;;;;;;;190.57;95.95;;;-1.80;99.90;;;;;;5024898;28;20144;-84
2022/12/17 19:11:32;;;;;;;53.83;25.13;;;-1.70;99.90;;;;;;5030405;28;20472;-85
2022/12/17 19:14:10;;;;;;;203.15;99.55;;;-1.80;99.90;;;;;;5030917;28;20068;-86
2022/12/17 19:17:12;;;;;;;223.57;101.07;;;-1.80;99.90;;;;;;5028884;28;20104;-86
2022/12/17 19:19:38;;;;;;;217.32;101.38;;;-1.80;99.90;;;;;;5028553;28;20095;-84
2022/12/17 19:22:07;;;;;;;218.77;105.13;;;-1.90;99.90;;;;;;5029867;28;20053;-84
2022/12/17 19:24:36;;;;;;;211.90;102.82;;;-1.90;99.90;;;;;;5024436;28;20042;-84
2022/12/17 19:27:02;;;;;;;229.00;102.28;;;-1.90;99.90;;;;;;5022032;28;20042;-84
2022/12/17 19:29:27;;;;;;;222.30;108.43;;;-1.80;99.90;;;;;;5024987;28;20705;-83
2022/12/17 19:31:53;;;;;;;215.20;100.78;;;-1.90;99.90;;;;;;5028528;28;20069;-81
2022/12/17 19:34:19;;;;;;;243.40;109.70;;;-1.90;99.90;;;;;;5029624;28;20033;-83
2022/12/17 19:36:45;;;;;;;229.45;109.65;;;-1.80;99.90;;;;;;5025300;28;20037;-84
2022/12/17 19:39:15;;;;;;;233.93;108.30;;;-1.80;99.90;;;;;;5035732;28;20063;-84
2022/12/17 19:41:42;;;;;;;236.80;108.85;;;-1.80;99.90;;;;;;5023633;28;20050;-84
2022/12/17 19:44:12;;;;;;;259.55;120.03;;;-1.80;99.90;;;;;;5025157;28;20045;-84
2022/12/17 19:46:38;;;;;;;57.00;21.17;;;-1.80;99.90;;;;;;5028147;28;20614;-84
2022/12/17 19:49:05;;;;;;;235.77;108.65;;;-1.90;99.90;;;;;;5028558;28;20072;-84
2022/12/17 19:51:32;;;;;;;238.25;105.63;;;-1.90;99.90;;;;;;5020878;28;20103;-84
2022/12/17 19:53:58;;;;;;;237.18;107.38;;;-1.90;99.90;;;;;;5026522;28;20133;-84
2022/12/17 19:56:27;;;;;;;70.88;22.50;;;-1.90;99.90;;;;;;5021399;28;20050;-83
2022/12/17 19:59:01;;;;;;;230.82;105.18;;;-1.90;99.90;;;;;;5029846;28;20065;-84
2022/12/17 20:01:32;;;;;;;245.57;109.78;;;-2.00;99.90;;;;;;5022288;28;20037;-84
2022/12/17 20:03:59;;;;;;;234.25;108.18;;;-1.90;99.90;;;;;;5027245;28;20062;-84
2022/12/17 20:06:27;;;;;;;241.82;110.72;;;-1.90;99.90;;;;;;5036277;28;20041;-84
2022/12/17 20:08:53;;;;;;;228.77;100.43;;;-2.00;99.90;;;;;;5028499;28;20060;-84
2022/12/17 20:11:32;;;;;;;69.00;19.77;;;-2.00;99.90;;;;;;5025514;28;20497;-85
2022/12/17 20:14:13;;;;;;;234.82;111.35;;;-2.00;99.90;;;;;;5030103;28;20048;-84
2022/12/17 20:16:55;;;;;;;211.00;99.35;;;-2.00;99.90;;;;;;5023886;28;20048;-84
2022/12/17 20:19:23;;;;;;;208.02;101.28;;;-2.00;99.90;;;;;;5024105;28;20091;-84
2022/12/17 20:21:49;;;;;;;215.60;95.95;;;-2.00;99.90;;;;;;5027336;28;20136;-84
2022/12/17 20:24:16;;;;;;;224.95;102.50;;;-2.00;99.90;;;;;;5025198;28;20041;-80
2022/12/17 20:26:42;;;;;;;216.45;102.03;;;-2.10;99.90;;;;;;5025479;28;20049;-82
2022/12/17 20:29:10;;;;;;;213.45;98.95;;;-2.10;99.90;;;;;;5020809;28;20045;-83
2022/12/17 20:31:36;;;;;;;212.57;96.45;;;-2.00;99.90;;;;;;5021239;28;20074;-81
2022/12/17 20:34:04;;;;;;;210.18;99.95;;;-2.10;99.90;;;;;;5028471;28;20057;-82
2022/12/17 20:36:30;;;;;;;227.90;106.70;;;-2.10;99.90;;;;;;5029880;28;20042;-82
2022/12/17 20:38:56;;;;;;;224.32;100.88;;;-2.10;99.90;;;;;;5028218;28;20126;-82
2022/12/17 20:41:26;;;;;;;49.38;18.73;;;-2.00;99.90;;;;;;5011089;28;20054;-82
2022/12/17 20:43:53;;;;;;;210.90;97.03;;;-2.10;99.90;;;;;;5026456;28;20063;-82
2022/12/17 20:46:20;;;;;;;202.52;97.85;;;-2.10;99.90;;;;;;5026683;28;20239;-80
2022/12/17 20:48:46;;;;;;;221.02;103.88;;;-2.10;99.90;;;;;;5026816;28;21461;-83
2022/12/17 20:51:17;;;;;;;98.40;36.92;;;-2.10;99.90;;;;;;5025055;28;20049;-83
2022/12/17 20:53:44;;;;;;;216.02;99.97;;;-2.10;99.90;;;;;;5037898;28;20076;-83
2022/12/17 20:56:13;;;;;;;231.75;101.90;;;-2.20;99.90;;;;;;5026456;28;20045;-84
2022/12/17 20:58:40;;;;;;;235.77;102.20;;;-2.20;99.90;;;;;;5027436;28;20049;-82
2022/12/17 21:01:07;;;;;;;202.77;93.40;;;-2.20;99.90;;;;;;5023760;28;20530;-82
2022/12/17 21:03:33;;;;;;;216.98;97.82;;;-2.30;99.90;;;;;;5042745;28;20059;-82
2022/12/17 21:06:08;;;;;;;227.18;97.65;;;-2.30;99.90;;;;;;5027720;28;20033;-84
2022/12/17 21:08:36;;;;;;;53.90;17.95;;;-2.20;99.90;;;;;;5026606;28;20566;-83
2022/12/17 21:11:02;;;;;;;76.93;18.30;;;-2.20;99.90;;;;;;5023769;28;20501;-83
2022/12/17 21:13:28;;;;;;;47.75;16.85;;;-2.30;99.90;;;;;;5027133;28;20045;-83
2022/12/17 21:15:55;;;;;;;222.05;100.90;;;-2.30;99.90;;;;;;5024024;28;20587;-83
2022/12/17 21:18:20;;;;;;;217.57;96.95;;;-2.30;99.90;;;;;;5024842;28;20041;-83
2022/12/17 21:21:01;;;;;;;217.20;99.93;;;-2.40;99.90;;;;;;5025341;28;20434;-84
2022/12/17 21:23:27;;;;;;;216.98;99.55;;;-2.40;99.90;;;;;;5026781;28;20047;-82
2022/12/17 21:25:57;;;;;;;69.60;22.65;;;-2.40;99.90;;;;;;5044002;28;20057;-83
2022/12/17 21:28:23;;;;;;;222.18;95.75;;;-2.40;99.90;;;;;;5022633;28;20119;-83
2022/12/17 21:30:49;;;;;;;81.40;24.67;;;-2.40;99.90;;;;;;5040491;28;20038;-83
2022/12/17 21:33:15;;;;;;;225.18;101.15;;;-2.50;99.90;;;;;;5023994;28;20049;-83
2022/12/17 21:35:40;;;;;;;212.23;100.43;;;-2.50;99.90;;;;;;5025594;28;20087;-83
2022/12/17 21:38:06;;;;;;;77.18;21.48;;;-2.40;99.90;;;;;;5022484;28;20449;-83
2022/12/17 21:40:36;;;;;;;54.97;21.85;;;-2.50;99.90;;;;;;5017881;28;20056;-82
2022/12/17 21:43:02;;;;;;;237.75;103.35;;;-2.50;99.90;;;;;;5023543;28;20042;-82
2022/12/17 21:45:35;;;;;;;215.43;101.70;;;-2.60;99.90;;;;;;5023473;28;20095;-83
2022/12/17 21:48:01;;;;;;;81.82;21.73;;;-2.50;99.90;;;;;;5024841;28;20112;-83
2022/12/17 21:50:26;;;;;;;233.93;97.85;;;-2.50;99.90;;;;;;5025622;28;20120;-83
2022/12/17 21:52:52;;;;;;;223.38;97.72;;;-2.50;99.90;;;;;;5023686;28;20490;-82
2022/12/17 21:55:18;;;;;;;225.48;103.63;;;-2.50;99.90;;;;;;5039528;28;20049;-83
2022/12/17 21:57:43;;;;;;;83.13;27.85;;;-2.50;99.90;;;;;;5024794;28;20040;-83
2022/12/17 22:00:09;;;;;;;71.80;20.70;;;-2.50;99.90;;;;;;5023181;28;20079;-83
2022/12/17 22:02:35;;;;;;;226.20;99.85;;;-2.50;99.90;;;;;;5024764;28;20045;-83
2022/12/17 22:05:02;;;;;;;227.68;99.60;;;-2.50;99.90;;;;;;5024735;28;20038;-83
2022/12/17 22:07:28;;;;;;;206.98;92.50;;;-2.50;99.90;;;;;;5025741;28;20041;-83
2022/12/17 22:09:53;;;;;;;221.85;98.80;;;-2.50;99.90;;;;;;5022722;28;20103;-82
2022/12/17 22:15:04;;;;;;;222.18;98.55;;;-2.50;99.90;;;;;;5023945;28;20052;-83
2022/12/17 22:17:29;;;;;;;243.13;100.50;;;-2.50;99.90;;;;;;5023125;28;20831;-83
2022/12/17 22:19:55;;;;;;;233.48;104.18;;;-2.50;99.90;;;;;;5024527;28;20061;-83
2022/12/17 22:22:21;;;;;;;253.70;104.40;;;-2.50;99.90;;;;;;5024971;28;20475;-83
2022/12/17 22:24:46;;;;;;;204.90;92.32;;;-2.50;99.90;;;;;;5025305;28;20042;-83
2022/12/17 22:27:12;;;;;;;229.70;100.55;;;-2.60;99.90;;;;;;5024576;28;20133;-83
2022/12/17 22:35:06;;;;;;;230.18;99.30;;;-2.60;99.90;;;;;;5023802;28;20057;-83
2022/12/17 22:37:33;;;;;;;242.13;102.22;;;-2.60;99.90;;;;;;5021879;28;20050;-83
2022/12/17 22:39:58;;;;;;;240.02;99.20;;;-2.50;99.90;;;;;;5025434;28;20037;-83
2022/12/17 22:45:09;;;;;;;224.50;95.57;;;-2.50;99.90;;;;;;5025630;28;20084;-83
2022/12/17 22:47:35;;;;;;;212.60;89.97;;;-2.60;99.90;;;;;;5025086;28;20056;-83
2022/12/17 22:50:00;;;;;;;204.30;91.65;;;-2.50;99.90;;;;;;5025648;28;20772;-83
2022/12/17 22:52:26;;;;;;;210.73;88.95;;;-2.60;99.90;;;;;;5024385;28;20045;-82
2022/12/17 22:54:52;;;;;;;205.23;87.28;;;-2.50;99.90;;;;;;5019801;28;20049;-83
2022/12/17 22:57:19;;;;;;;218.25;87.55;;;-2.50;99.90;;;;;;5025280;28;20037;-82
2022/12/17 22:59:44;;;;;;;196.05;86.25;;;-2.60;99.90;;;;;;5024701;28;20045;-82
2022/12/17 23:02:10;;;;;;;193.55;83.57;;;-2.70;99.90;;;;;;5022608;28;20569;-82
2022/12/17 23:04:36;;;;;;;187.23;83.80;;;-2.70;99.90;;;;;;5026309;28;20415;-83
2022/12/17 23:07:02;;;;;;;193.48;86.38;;;-2.70;99.90;;;;;;5028678;28;20042;-82
2022/12/17 23:09:27;;;;;;;199.50;84.72;;;-2.70;99.90;;;;;;5024177;28;20052;-82
2022/12/17 23:11:53;;;;;;;209.68;86.80;;;-2.80;99.90;;;;;;5029327;28;20041;-82
2022/12/17 23:14:19;;;;;;;202.23;85.78;;;-2.80;99.90;;;;;;5029170;28;20038;-82
2022/12/17 23:16:45;;;;;;;199.82;90.10;;;-2.70;99.90;;;;;;5028673;28;20051;-82
2022/12/17 23:19:11;;;;;;;204.70;89.35;;;-2.70;99.90;;;;;;5023577;28;20045;-82
2022/12/17 23:21:37;;;;;;;221.18;90.10;;;-2.80;99.90;;;;;;5028870;28;20064;-82
2022/12/17 23:24:04;;;;;;;232.68;92.55;;;-2.80;99.90;;;;;;5028331;28;20053;-82
2022/12/17 23:26:34;;;;;;;30.02;9.23;;;-2.80;99.90;;;;;;5037069;28;20049;-82
2022/12/17 23:29:04;;;;;;;231.23;90.03;;;-2.90;99.90;;;;;;5042977;28;20696;-82
2022/12/17 23:31:34;;;;;;;211.48;89.55;;;-2.80;99.90;;;;;;5023471;28;20080;-82
2022/12/17 23:34:00;;;;;;;207.82;88.03;;;-2.80;99.90;;;;;;5028035;28;20045;-83
2022/12/17 23:36:26;;;;;;;62.13;22.55;;;-2.80;99.90;;;;;;5027054;28;20045;-82
2022/12/17 23:38:53;;;;;;;52.58;12.93;;;-2.80;99.90;;;;;;5026193;28;20037;-82
2022/12/17 23:41:22;;;;;;;239.57;93.82;;;-2.80;99.90;;;;;;5024334;28;20063;-82
2022/12/17 23:43:49;;;;;;;252.27;98.35;;;-2.90;99.90;;;;;;5028839;28;20497;-82
2022/12/17 23:46:16;;;;;;;225.63;95.72;;;-2.90;99.90;;;;;;5012234;28;20041;-82
2022/12/17 23:48:43;;;;;;;93.28;37.42;;;-2.90;99.90;;;;;;5027599;28;20368;-82
2022/12/17 23:51:10;;;;;;;39.63;16.87;;;-2.90;99.90;;;;;;5029917;28;20085;-82
2022/12/17 23:53:37;;;;;;;210.85;87.57;;;-2.90;99.90;;;;;;5025062;28;20041;-82
2022/12/17 23:56:11;;;;;;;101.03;39.40;;;-3.00;99.90;;;;;;5028927;28;20041;-82
2022/12/17 23:58:38;;;;;;;84.72;21.90;;;-3.00;99.90;;;;;;5023846;28;20116;-81
